Time;durP1;ratioP1;P1;durP2;ratioP2;P2;SDS_P1;SDS_P2;PMS_P1;PMS_P2;Temp;Humidity;BMP_temperature;BMP_pressure;BME280_temperature;BME280_humidity;BME280_pressure;Samples;Min_cycle;Max_cycle;Signal;HPM_P1;HPM_P2
2024/01/11 00:02:01;;;;;;;14.60;7.10;;;21.20;63.10;;;;;;5054667;28;20190;-56
2024/01/11 00:04:43;;;;;;;10.43;5.67;;;21.20;63.10;;;;;;5060652;28;21210;-52
2024/01/11 00:07:37;;;;;;;;;;;;;;;;;;;;;
2024/01/11 00:10:21;;;;;;;;;;;;;;;;;;;;;
2024/01/11 00:12:56;;;;;;;12.45;6.13;;;21.30;63.40;;;;;;5057928;28;20453;-55
2024/01/11 00:15:30;;;;;;;11.90;7.40;;;21.20;63.30;;;;;;5053411;28;20363;-57
2024/01/11 00:18:18;;;;;;;;;;;;;;;;;;;;;
2024/01/11 00:20:51;;;;;;;10.13;7.00;;;21.20;63.40;;;;;;5052749;28;22805;-55
2024/01/11 00:23:36;;;;;;;8.90;5.43;;;21.20;63.40;;;;;;5063950;28;20479;-57
2024/01/11 00:26:07;;;;;;;11.80;7.30;;;21.10;63.20;;;;;;5064457;28;20793;-56
2024/01/11 00:29:03;;;;;;;11.15;7.10;;;21.10;63.20;;;;;;5062735;28;20694;-56
2024/01/11 00:31:35;;;;;;;10.77;7.43;;;21.10;63.10;;;;;;5063919;28;20198;-57
2024/01/11 00:34:06;;;;;;;10.02;6.47;;;21.10;63.20;;;;;;5067877;28;20316;-55
2024/01/11 00:36:48;;;;;;;9.30;6.47;;;21.10;63.30;;;;;;5067073;28;20209;-54
2024/01/11 00:39:14;;;;;;;9.53;6.70;;;21.10;63.10;;;;;;5066009;28;20205;-56
2024/01/11 00:44:25;;;;;;;8.98;6.50;;;21.10;63.10;;;;;;5065187;28;20229;-57
2024/01/11 00:47:04;;;;;;;14.43;7.47;;;21.00;63.00;;;;;;5063473;28;20337;-56
2024/01/11 00:49:34;;;;;;;9.65;6.43;;;21.10;63.10;;;;;;5059352;28;20298;-56
2024/01/11 00:52:07;;;;;;;10.45;6.50;;;21.10;63.10;;;;;;5063338;28;20289;-55
2024/01/11 00:54:40;;;;;;;12.20;7.40;;;21.00;62.90;;;;;;5064404;28;20604;-57
2024/01/11 00:57:11;;;;;;;10.95;6.50;;;21.00;63.00;;;;;;5060210;28;20312;-52
2024/01/11 00:59:41;;;;;;;7.90;6.03;;;21.00;62.90;;;;;;5061020;28;20884;-57
2024/01/11 01:02:13;;;;;;;10.35;7.00;;;21.00;62.90;;;;;;5057306;28;20457;-57
2024/01/11 01:05:06;;;;;;;17.90;8.02;;;21.00;62.90;;;;;;5061757;28;20574;-56
2024/01/11 01:07:53;;;;;;;9.05;5.95;;;21.00;63.70;;;;;;5059348;28;20284;-56
2024/01/11 01:10:43;;;;;;;10.20;6.28;;;21.00;62.90;;;;;;5044767;28;20419;-57
2024/01/11 01:13:24;;;;;;;9.18;6.75;;;21.00;63.00;;;;;;5049558;28;20209;-55
2024/01/11 01:16:04;;;;;;;9.27;6.65;;;21.00;63.00;;;;;;5057645;28;20192;-57
2024/01/11 01:18:39;;;;;;;9.20;6.68;;;21.00;62.90;;;;;;5057445;28;20203;-54
2024/01/11 01:21:29;;;;;;;6.88;5.88;;;20.90;62.90;;;;;;5053893;28;20251;-56
2024/01/11 01:24:03;;;;;;;9.93;6.40;;;20.90;62.90;;;;;;5064044;28;20448;-55
2024/01/11 01:26:40;;;;;;;9.35;6.38;;;20.90;62.90;;;;;;5059246;28;20458;-55
2024/01/11 01:29:24;;;;;;;9.52;5.68;;;20.90;62.80;;;;;;5053786;28;20200;-55
2024/01/11 01:31:50;;;;;;;9.10;6.13;;;20.90;62.90;;;;;;5057145;28;20194;-54
2024/01/11 01:34:34;;;;;;;7.53;6.10;;;20.90;62.90;;;;;;5063331;28;20198;-54
2024/01/11 01:37:06;;;;;;;8.63;6.00;;;20.90;62.90;;;;;;5062257;28;21022;-55
2024/01/11 01:39:48;;;;;;;8.77;6.03;;;20.90;62.90;;;;;;5062154;28;20773;-56
2024/01/11 01:42:18;;;;;;;8.65;5.68;;;20.90;62.90;;;;;;5061798;28;20595;-56
2024/01/11 01:44:46;;;;;;;7.17;5.70;;;20.90;62.90;;;;;;5061702;28;20225;-56
2024/01/11 01:47:28;;;;;;;8.63;6.95;;;20.90;62.90;;;;;;5064118;28;21235;-55
2024/01/11 01:50:09;;;;;;;9.20;5.80;;;20.90;62.90;;;;;;5061419;28;20347;-56
2024/01/11 01:52:51;;;;;;;12.75;6.50;;;20.90;62.90;;;;;;5060364;28;20193;-57
2024/01/11 01:55:34;;;;;;;6.70;5.20;;;20.90;63.00;;;;;;5059298;28;20198;-56
2024/01/11 01:58:16;;;;;;;8.10;5.95;;;20.80;62.90;;;;;;5060088;28;20767;-57
2024/01/11 02:00:57;;;;;;;8.82;5.40;;;20.80;62.90;;;;;;5059909;28;20232;-57
2024/01/11 02:03:33;;;;;;;10.00;6.28;;;20.80;62.90;;;;;;5060792;28;20798;-56
2024/01/11 02:06:17;;;;;;;11.10;5.88;;;20.80;62.90;;;;;;5062332;28;20193;-54
2024/01/11 02:08:54;;;;;;;8.98;5.22;;;20.80;62.90;;;;;;5055711;28;20200;-55
2024/01/11 02:11:31;;;;;;;8.25;5.07;;;20.80;62.90;;;;;;5053129;28;20195;-54
2024/01/11 02:14:07;;;;;;;8.15;5.80;;;20.80;62.90;;;;;;5056574;28;20197;-51
2024/01/11 02:16:39;;;;;;;8.77;5.10;;;20.80;62.90;;;;;;5055043;28;20672;-52
2024/01/11 02:19:21;;;;;;;13.32;7.05;;;20.80;62.90;;;;;;5059660;28;20842;-56
2024/01/11 02:24:22;;;;;;;8.13;5.55;;;20.80;62.90;;;;;;5036859;28;20492;-82
2024/01/11 02:27:02;;;;;;;7.65;5.10;;;20.80;62.90;;;;;;5038516;28;20203;-84
2024/01/11 02:29:30;;;;;;;9.30;5.90;;;20.80;62.90;;;;;;5037703;28;20199;-81
2024/01/11 02:31:57;;;;;;;7.53;4.97;;;20.80;63.00;;;;;;5034667;28;21221;-81
2024/01/11 02:34:25;;;;;;;9.30;5.30;;;20.80;62.90;;;;;;5036745;28;20206;-81
2024/01/11 02:36:51;;;;;;;7.20;5.32;;;20.80;62.90;;;;;;5035805;28;20191;-82
2024/01/11 02:39:22;;;;;;;5.07;4.57;;;20.80;62.90;;;;;;5038025;28;20207;-82
2024/01/11 02:41:51;;;;;;;6.95;5.35;;;20.70;62.80;;;;;;5038359;28;20207;-81
2024/01/11 02:44:18;;;;;;;7.65;4.88;;;20.70;62.80;;;;;;5039104;28;20218;-81
2024/01/11 02:46:45;;;;;;;7.18;5.57;;;20.70;62.80;;;;;;5038995;28;20209;-81
2024/01/11 02:49:12;;;;;;;7.03;4.95;;;20.70;62.80;;;;;;5038582;28;20203;-82
2024/01/11 02:51:41;;;;;;;7.23;6.03;;;20.70;62.90;;;;;;5037880;28;20317;-81
2024/01/11 02:54:08;;;;;;;6.68;4.60;;;20.70;63.70;;;;;;5039979;28;20468;-82
2024/01/11 02:56:36;;;;;;;6.80;5.30;;;20.70;62.80;;;;;;5042838;28;20230;-81
2024/01/11 02:59:03;;;;;;;6.13;4.67;;;20.70;62.80;;;;;;5042205;28;20624;-83
2024/01/11 03:01:30;;;;;;;6.75;4.90;;;20.70;62.80;;;;;;5042186;28;20477;-83
2024/01/11 03:03:57;;;;;;;6.22;4.82;;;20.70;62.80;;;;;;5044857;28;20310;-81
2024/01/11 03:06:24;;;;;;;5.90;4.00;;;20.70;62.80;;;;;;5044427;28;20231;-83
2024/01/11 03:08:51;;;;;;;8.68;6.90;;;20.70;62.80;;;;;;5044828;28;20650;-81
2024/01/11 03:11:18;;;;;;;7.30;5.32;;;20.70;62.90;;;;;;5040777;28;20198;-82
2024/01/11 03:13:46;;;;;;;7.40;4.78;;;20.70;62.80;;;;;;5043102;28;20194;-82
2024/01/11 03:16:12;;;;;;;6.95;4.50;;;20.70;62.80;;;;;;5041664;28;20673;-82
2024/01/11 03:18:39;;;;;;;6.90;5.40;;;20.70;62.80;;;;;;5043871;28;21239;-81
2024/01/11 03:21:06;;;;;;;6.30;5.28;;;20.70;62.80;;;;;;5045057;28;20198;-82
2024/01/11 03:23:33;;;;;;;8.65;5.30;;;20.70;62.80;;;;;;5043976;28;20217;-83
2024/01/11 03:26:00;;;;;;;6.28;4.40;;;20.70;62.80;;;;;;5044197;28;20195;-79
2024/01/11 03:28:27;;;;;;;7.03;5.82;;;20.60;62.70;;;;;;5041373;28;20942;-80
2024/01/11 03:30:55;;;;;;;7.57;5.50;;;20.60;62.80;;;;;;5040376;28;21228;-84
2024/01/11 03:33:22;;;;;;;8.45;5.80;;;20.60;62.70;;;;;;5043496;28;20205;-82
2024/01/11 03:35:48;;;;;;;5.80;4.72;;;20.60;62.70;;;;;;5044350;28;20550;-82
2024/01/11 03:38:15;;;;;;;7.78;5.85;;;20.60;62.70;;;;;;5044734;28;20256;-81
2024/01/11 03:40:42;;;;;;;6.20;4.53;;;20.60;62.70;;;;;;5041645;28;20206;-83
2024/01/11 03:43:09;;;;;;;8.32;4.70;;;20.60;62.70;;;;;;5039243;28;20211;-83
2024/01/11 03:45:35;;;;;;;6.73;4.63;;;20.60;62.80;;;;;;5042996;28;20773;-83
2024/01/11 03:48:04;;;;;;;8.88;5.22;;;20.60;62.80;;;;;;5040744;28;20452;-83
2024/01/11 03:50:31;;;;;;;6.82;4.55;;;20.60;62.80;;;;;;5044196;28;20214;-83
2024/01/11 03:52:58;;;;;;;9.45;5.13;;;20.60;62.80;;;;;;5042362;28;20203;-82
2024/01/11 03:55:25;;;;;;;7.05;4.47;;;20.60;62.80;;;;;;5042762;28;20666;-80
2024/01/11 03:57:52;;;;;;;6.35;4.35;;;20.60;62.80;;;;;;5041343;28;20754;-79
2024/01/11 04:00:19;;;;;;;5.78;4.57;;;20.60;62.80;;;;;;5039996;28;20224;-79
2024/01/11 04:02:46;;;;;;;6.85;4.60;;;20.60;62.80;;;;;;5040133;28;20201;-83
2024/01/11 04:05:14;;;;;;;7.13;5.05;;;20.60;62.80;;;;;;5043278;28;20207;-82
2024/01/11 04:07:42;;;;;;;6.90;5.15;;;20.60;62.80;;;;;;5041596;28;20208;-81
2024/01/11 04:10:09;;;;;;;6.72;5.10;;;20.60;62.80;;;;;;5040781;28;20663;-83
2024/01/11 04:12:36;;;;;;;6.57;4.50;;;20.60;62.80;;;;;;5040902;28;20253;-83
2024/01/11 04:15:04;;;;;;;6.07;5.10;;;20.60;62.80;;;;;;5043339;28;20672;-83
2024/01/11 04:17:31;;;;;;;6.20;4.60;;;20.60;62.80;;;;;;5041474;28;20199;-82
2024/01/11 04:19:57;;;;;;;5.85;4.22;;;20.60;62.80;;;;;;5042251;28;20206;-83
2024/01/11 04:22:25;;;;;;;5.13;4.53;;;20.60;62.90;;;;;;5041493;28;20217;-82
2024/01/11 04:24:52;;;;;;;6.13;4.53;;;20.60;62.80;;;;;;5041271;28;20233;-83
2024/01/11 04:27:19;;;;;;;4.88;4.05;;;20.60;62.80;;;;;;5040703;28;20552;-82
2024/01/11 04:29:46;;;;;;;6.43;5.10;;;20.60;62.80;;;;;;5042359;28;20214;-83
2024/01/11 04:32:12;;;;;;;5.57;4.25;;;20.50;62.70;;;;;;5039621;28;20202;-83
2024/01/11 04:34:39;;;;;;;5.00;3.92;;;20.50;62.80;;;;;;5043774;28;20202;-81
2024/01/11 04:37:06;;;;;;;5.28;3.97;;;20.50;62.80;;;;;;5042462;28;20190;-81
2024/01/11 04:39:34;;;;;;;5.07;4.38;;;20.50;62.70;;;;;;5043152;28;20565;-82
2024/01/11 04:42:02;;;;;;;6.63;5.28;;;20.50;62.70;;;;;;5040779;28;20207;-83
2024/01/11 04:44:28;;;;;;;6.13;4.53;;;20.50;62.70;;;;;;5041952;28;20218;-83
2024/01/11 04:46:55;;;;;;;6.40;4.75;;;20.50;62.70;;;;;;5041887;28;20199;-84
2024/01/11 04:49:22;;;;;;;7.20;4.53;;;20.60;62.90;;;;;;5040784;28;20194;-81
2024/01/11 04:51:49;;;;;;;5.57;4.38;;;20.50;62.70;;;;;;5041999;28;20203;-82
2024/01/11 04:54:15;;;;;;;6.85;4.60;;;20.50;62.80;;;;;;5041070;28;20995;-81
2024/01/11 04:56:44;;;;;;;5.22;4.53;;;20.50;62.80;;;;;;5040531;28;20205;-80
2024/01/11 04:59:11;;;;;;;4.90;3.67;;;20.50;63.50;;;;;;5043098;28;20661;-84
2024/01/11 05:01:37;;;;;;;7.57;5.18;;;20.50;62.80;;;;;;5042313;28;20229;-84
2024/01/11 05:04:04;;;;;;;6.55;4.85;;;20.50;62.80;;;;;;5041213;28;20202;-82
2024/01/11 05:06:31;;;;;;;5.70;3.97;;;20.50;62.80;;;;;;5038453;28;20210;-84
2024/01/11 05:08:58;;;;;;;6.63;4.50;;;20.50;62.90;;;;;;5040098;28;20198;-82
2024/01/11 05:11:26;;;;;;;6.00;4.55;;;20.50;62.80;;;;;;5040090;28;20213;-81
2024/01/11 05:13:54;;;;;;;6.93;3.80;;;20.50;62.80;;;;;;5042085;28;20222;-83
2024/01/11 05:16:22;;;;;;;6.45;5.03;;;20.50;62.80;;;;;;5040451;28;20195;-82
2024/01/11 05:18:49;;;;;;;5.68;4.38;;;20.50;62.80;;;;;;5041359;28;20202;-82
2024/01/11 05:21:16;;;;;;;7.50;3.92;;;20.50;62.90;;;;;;5040673;28;20211;-84
2024/01/11 05:23:43;;;;;;;5.07;3.75;;;20.50;62.80;;;;;;5041632;28;20215;-81
2024/01/11 05:26:09;;;;;;;6.20;3.90;;;20.50;62.80;;;;;;5036156;28;20303;-81
2024/01/11 05:28:38;;;;;;;5.55;4.20;;;20.50;62.80;;;;;;5039183;28;20342;-80
2024/01/11 05:31:08;;;;;;;5.88;4.25;;;20.50;62.90;;;;;;5039352;28;20206;-81
2024/01/11 05:33:35;;;;;;;6.90;4.20;;;20.50;62.80;;;;;;5040542;28;20762;-81
2024/01/11 05:36:02;;;;;;;4.70;3.65;;;20.50;62.80;;;;;;5047491;28;20210;-82
2024/01/11 05:38:29;;;;;;;5.20;4.38;;;20.50;62.80;;;;;;5051123;28;20690;-83
2024/01/11 05:40:56;;;;;;;4.70;4.20;;;20.50;62.90;;;;;;5044335;28;20199;-83
2024/01/11 05:43:23;;;;;;;3.88;3.45;;;20.50;62.80;;;;;;5037553;28;20194;-83
2024/01/11 05:45:50;;;;;;;7.38;5.35;;;20.50;62.80;;;;;;5037700;28;20285;-83
2024/01/11 05:48:18;;;;;;;4.53;3.63;;;20.50;62.80;;;;;;5038859;28;20202;-84
2024/01/11 05:50:45;;;;;;;6.03;3.90;;;20.50;62.90;;;;;;5038094;28;20198;-82
2024/01/11 05:53:13;;;;;;;4.55;3.35;;;20.50;62.80;;;;;;5035395;28;20207;-83
2024/01/11 05:55:39;;;;;;;4.70;3.77;;;20.40;62.70;;;;;;5038295;28;20534;-81
2024/01/11 05:58:06;;;;;;;4.07;3.33;;;20.50;62.80;;;;;;5039613;28;20462;-82
2024/01/11 06:00:33;;;;;;;4.90;2.90;;;20.50;62.80;;;;;;5036611;28;20198;-82
2024/01/11 06:03:00;;;;;;;4.80;4.07;;;20.40;62.70;;;;;;5040021;28;20203;-82
2024/01/11 06:05:28;;;;;;;5.00;3.83;;;20.40;62.70;;;;;;5038114;28;20222;-83
2024/01/11 06:07:55;;;;;;;6.00;3.70;;;20.40;62.70;;;;;;5037144;28;20444;-83
2024/01/11 06:10:21;;;;;;;8.68;4.72;;;20.40;62.70;;;;;;5037793;28;20203;-83
2024/01/11 06:12:48;;;;;;;6.50;4.13;;;20.40;62.80;;;;;;5037484;28;20199;-82
2024/01/11 06:15:15;;;;;;;5.40;4.28;;;20.40;62.80;;;;;;5037014;28;21072;-81
2024/01/11 06:17:41;;;;;;;4.88;4.03;;;20.40;62.80;;;;;;5037858;28;20206;-83
2024/01/11 06:20:09;;;;;;;5.05;4.55;;;20.40;62.80;;;;;;5038341;28;20202;-83
2024/01/11 06:22:38;;;;;;;4.82;4.32;;;20.40;62.80;;;;;;5035733;28;20214;-84
2024/01/11 06:25:05;;;;;;;5.10;3.80;;;20.40;62.70;;;;;;5039000;28;20226;-82
2024/01/11 06:27:32;;;;;;;4.78;3.95;;;20.40;62.80;;;;;;5039349;28;20202;-83
2024/01/11 06:29:58;;;;;;;5.25;3.42;;;20.40;62.70;;;;;;5037344;28;20582;-84
2024/01/11 06:32:25;;;;;;;5.07;4.18;;;20.50;62.80;;;;;;5037824;28;20284;-82
2024/01/11 06:34:52;;;;;;;4.50;3.30;;;20.40;62.70;;;;;;5037610;28;20685;-82
2024/01/11 06:37:18;;;;;;;3.78;3.38;;;20.40;62.70;;;;;;5038713;28;20202;-85
2024/01/11 06:39:48;;;;;;;5.55;3.90;;;20.40;62.70;;;;;;5038031;28;20198;-83
2024/01/11 06:42:14;;;;;;;4.90;4.20;;;20.40;62.70;;;;;;5039628;28;20654;-82
2024/01/11 06:44:41;;;;;;;5.53;4.70;;;20.40;62.80;;;;;;5037501;28;20206;-83
2024/01/11 06:47:08;;;;;;;5.70;4.32;;;20.40;62.80;;;;;;5038886;28;20206;-84
2024/01/11 06:49:35;;;;;;;5.78;3.92;;;20.40;62.80;;;;;;5038885;28;20195;-82
2024/01/11 06:52:02;;;;;;;4.38;3.60;;;20.50;63.60;;;;;;5039937;28;20213;-82
2024/01/11 06:54:30;;;;;;;6.90;4.55;;;20.40;62.80;;;;;;5037940;28;20210;-83
2024/01/11 06:56:58;;;;;;;4.22;3.45;;;20.40;62.70;;;;;;5039501;28;20244;-84
2024/01/11 06:59:25;;;;;;;5.15;4.00;;;20.40;62.60;;;;;;5037208;28;20202;-82
2024/01/11 07:01:51;;;;;;;3.80;3.17;;;20.40;62.60;;;;;;5039261;28;20209;-84
2024/01/11 07:04:18;;;;;;;4.35;3.78;;;20.40;62.50;;;;;;5040632;28;20484;-82
2024/01/11 07:06:45;;;;;;;4.90;4.30;;;20.40;62.50;;;;;;5041208;28;20327;-82
2024/01/11 07:09:12;;;;;;;5.28;4.47;;;20.40;62.50;;;;;;5037888;28;20870;-82
2024/01/11 07:11:38;;;;;;;5.80;4.45;;;20.40;62.50;;;;;;5041310;28;20198;-83
2024/01/11 07:14:07;;;;;;;6.82;4.82;;;20.40;62.50;;;;;;5039377;28;20206;-82
2024/01/11 07:16:33;;;;;;;4.65;3.95;;;20.40;62.50;;;;;;5039701;28;20853;-82
2024/01/11 07:19:00;;;;;;;5.93;4.60;;;20.30;63.10;;;;;;5039309;28;20195;-84
2024/01/11 07:21:31;;;;;;;4.03;3.65;;;20.30;62.40;;;;;;5037785;28;21014;-83
2024/01/11 07:23:58;;;;;;;4.90;3.83;;;20.30;62.40;;;;;;5039334;28;20287;-85
2024/01/11 07:26:24;;;;;;;5.50;3.35;;;20.30;62.40;;;;;;5039330;28;20226;-83
2024/01/11 07:28:51;;;;;;;5.65;4.10;;;20.30;62.40;;;;;;5039257;28;20207;-83
2024/01/11 07:31:19;;;;;;;7.60;3.78;;;20.30;62.50;;;;;;5038841;28;20214;-84
2024/01/11 07:33:46;;;;;;;5.25;3.70;;;20.20;62.50;;;;;;5040276;28;20229;-83
2024/01/11 07:36:15;;;;;;;5.40;4.40;;;20.30;62.60;;;;;;5040473;28;20198;-83
2024/01/11 07:38:42;;;;;;;4.60;3.90;;;20.30;62.70;;;;;;5038973;28;21256;-85
2024/01/11 07:41:09;;;;;;;4.65;3.67;;;20.30;62.80;;;;;;5036951;28;20580;-81
2024/01/11 07:43:36;;;;;;;4.18;3.70;;;20.30;62.90;;;;;;5041520;28;20193;-82
2024/01/11 07:46:03;;;;;;;4.53;4.13;;;20.20;62.90;;;;;;5040494;28;20340;-84
2024/01/11 07:48:31;;;;;;;3.30;2.80;;;20.30;63.10;;;;;;5043711;28;20258;-84
2024/01/11 07:50:59;;;;;;;4.05;3.42;;;20.30;63.10;;;;;;5042571;28;20195;-82
2024/01/11 07:53:25;;;;;;;4.38;3.88;;;20.30;63.10;;;;;;5042028;28;20846;-82
2024/01/11 07:55:52;;;;;;;5.32;4.28;;;20.30;63.10;;;;;;5042192;28;20206;-83
2024/01/11 07:58:20;;;;;;;4.13;3.70;;;20.30;63.10;;;;;;5040268;28;20199;-83
2024/01/11 08:00:48;;;;;;;3.78;3.00;;;20.30;63.10;;;;;;5038609;28;20204;-85
2024/01/11 08:03:14;;;;;;;5.15;3.40;;;20.30;63.10;;;;;;5037458;28;20214;-84
2024/01/11 08:05:44;;;;;;;4.25;3.83;;;20.40;63.10;;;;;;5041529;28;20219;-83
2024/01/11 08:08:13;;;;;;;4.07;3.70;;;20.40;63.10;;;;;;5042133;28;20619;-83
2024/01/11 08:10:39;;;;;;;4.30;3.20;;;20.40;63.10;;;;;;5040208;28;20208;-82
2024/01/11 08:13:06;;;;;;;4.28;3.83;;;20.40;63.00;;;;;;5041655;28;20198;-82
2024/01/11 08:15:34;;;;;;;4.40;3.90;;;20.40;62.90;;;;;;5039162;28;20904;-83
2024/01/11 08:18:00;;;;;;;4.50;3.67;;;20.40;62.90;;;;;;5041080;28;20226;-86
2024/01/11 08:20:27;;;;;;;4.72;3.72;;;20.40;62.80;;;;;;5042102;28;20199;-82
2024/01/11 08:22:56;;;;;;;4.00;3.50;;;20.40;62.80;;;;;;5042510;28;21213;-83
2024/01/11 08:25:23;;;;;;;4.65;3.88;;;20.40;62.80;;;;;;5041608;28;20209;-84
2024/01/11 08:27:50;;;;;;;4.60;4.05;;;20.40;62.80;;;;;;5041962;28;20808;-83
2024/01/11 08:30:17;;;;;;;4.47;4.07;;;20.40;62.80;;;;;;5039969;28;20226;-81
2024/01/11 08:32:43;;;;;;;6.22;4.40;;;20.40;62.70;;;;;;5041963;28;20465;-82
2024/01/11 08:35:11;;;;;;;5.22;4.03;;;20.40;62.80;;;;;;5037711;28;20784;-79
2024/01/11 08:37:38;;;;;;;3.28;2.95;;;20.40;62.70;;;;;;5038293;28;20203;-81
2024/01/11 08:40:09;;;;;;;3.78;3.28;;;20.40;62.70;;;;;;5040838;28;20256;-83
2024/01/11 08:42:36;;;;;;;5.07;3.78;;;20.30;62.60;;;;;;5039871;28;20218;-81
2024/01/11 08:45:06;;;;;;;3.63;3.33;;;20.30;62.60;;;;;;5042593;28;20228;-83
2024/01/11 08:47:33;;;;;;;4.18;3.63;;;20.30;62.60;;;;;;5039365;28;20465;-83
2024/01/11 08:50:00;;;;;;;3.70;3.35;;;20.30;62.60;;;;;;5036420;28;20676;-80
2024/01/11 08:52:27;;;;;;;4.57;3.40;;;20.30;62.60;;;;;;5038515;28;20206;-84
2024/01/11 08:54:53;;;;;;;4.60;3.55;;;20.40;63.30;;;;;;5038529;28;20206;-80
2024/01/11 08:57:21;;;;;;;7.28;4.78;;;20.30;62.60;;;;;;5034094;28;20210;-83
2024/01/11 08:59:48;;;;;;;4.25;3.85;;;20.40;62.80;;;;;;5035322;28;20283;-83
2024/01/11 09:02:15;;;;;;;5.68;3.90;;;20.40;62.80;;;;;;5033347;28;20202;-83
2024/01/11 09:04:42;;;;;;;5.85;4.10;;;20.40;62.80;;;;;;5037090;28;20237;-84
2024/01/11 09:07:08;;;;;;;4.40;3.55;;;20.40;62.90;;;;;;5039156;28;20321;-81
2024/01/11 09:09:35;;;;;;;6.82;4.10;;;20.40;62.90;;;;;;5039492;28;21056;-82
2024/01/11 09:12:02;;;;;;;5.97;3.45;;;20.40;63.00;;;;;;5038198;28;20194;-82
2024/01/11 09:14:32;;;;;;;4.35;3.55;;;20.40;62.90;;;;;;5041401;28;20207;-80
2024/01/11 09:16:59;;;;;;;4.57;3.38;;;20.40;62.90;;;;;;5041751;28;20191;-82
2024/01/11 09:19:25;;;;;;;3.90;3.50;;;20.40;62.90;;;;;;5040793;28;20203;-84
2024/01/11 09:21:52;;;;;;;4.22;3.60;;;20.40;62.80;;;;;;5041927;28;20202;-82
2024/01/11 09:24:19;;;;;;;4.50;3.20;;;20.40;62.70;;;;;;5042044;28;20218;-82
2024/01/11 09:26:45;;;;;;;4.13;3.50;;;20.40;62.60;;;;;;5041024;28;20218;-83
2024/01/11 09:29:13;;;;;;;8.88;4.07;;;20.40;62.80;;;;;;5042493;28;20195;-81
2024/01/11 09:31:42;;;;;;;3.88;3.20;;;20.40;62.60;;;;;;5043444;28;20198;-81
2024/01/11 09:34:09;;;;;;;3.95;3.55;;;20.40;63.00;;;;;;5041527;28;20218;-81
2024/01/11 09:36:38;;;;;;;7.05;3.97;;;20.40;62.90;;;;;;5039726;28;20202;-83
2024/01/11 09:39:05;;;;;;;5.70;4.38;;;20.40;63.10;;;;;;5039281;28;20204;-83
2024/01/11 09:41:32;;;;;;;9.52;4.75;;;20.40;63.40;;;;;;5038243;28;20202;-84
2024/01/11 09:44:04;;;;;;;8.55;3.83;;;20.40;63.60;;;;;;5037884;28;20207;-87
2024/01/11 09:46:32;;;;;;;9.48;4.10;;;20.40;64.00;;;;;;5036690;28;21245;-86
2024/01/11 09:49:03;;;;;;;9.23;4.25;;;20.40;64.00;;;;;;5039910;28;20199;-86
2024/01/11 09:51:31;;;;;;;6.15;4.10;;;20.50;64.20;;;;;;5035282;28;20303;-87
2024/01/11 09:54:00;;;;;;;5.22;4.13;;;20.50;64.20;;;;;;5037419;28;20214;-80
2024/01/11 09:56:28;;;;;;;6.55;4.40;;;20.50;64.30;;;;;;5033604;28;20202;-81
2024/01/11 09:58:55;;;;;;;5.35;4.35;;;20.50;64.30;;;;;;5035355;28;20318;-81
2024/01/11 10:01:22;;;;;;;6.10;4.60;;;20.50;64.20;;;;;;5033883;28;20199;-82
2024/01/11 10:03:49;;;;;;;34.05;5.38;;;20.50;64.20;;;;;;5035056;28;20203;-82
2024/01/11 10:06:19;;;;;;;4.60;3.78;;;20.50;64.10;;;;;;5035465;28;22385;-81
2024/01/11 10:08:46;;;;;;;6.78;5.63;;;20.40;64.10;;;;;;5036665;28;20582;-81
2024/01/11 10:11:13;;;;;;;4.85;4.35;;;20.50;64.00;;;;;;5038565;28;20207;-82
2024/01/11 10:13:42;;;;;;;7.20;5.43;;;20.50;64.10;;;;;;5040688;28;20205;-90
2024/01/11 10:16:13;;;;;;;6.35;5.25;;;20.50;64.00;;;;;;5041849;28;20199;-89
2024/01/11 10:18:40;;;;;;;5.20;4.70;;;20.50;64.10;;;;;;5039854;28;20908;-87
2024/01/11 10:21:07;;;;;;;4.80;3.92;;;20.50;64.30;;;;;;5036948;28;20679;-88
2024/01/11 10:23:36;;;;;;;6.55;4.40;;;20.60;64.40;;;;;;5037800;28;20234;-82
2024/01/11 10:26:03;;;;;;;5.38;4.45;;;20.60;64.60;;;;;;5039019;28;20543;-88
2024/01/11 10:28:30;;;;;;;4.75;4.10;;;20.60;65.00;;;;;;5039866;28;20290;-81
2024/01/11 10:30:58;;;;;;;5.05;4.30;;;20.60;65.50;;;;;;5039072;28;20569;-82
2024/01/11 10:33:25;;;;;;;5.10;4.15;;;20.60;65.30;;;;;;5038784;28;20198;-86
2024/01/11 10:35:51;;;;;;;9.20;4.75;;;20.60;66.70;;;;;;5036548;28;20209;-84
2024/01/11 10:38:19;;;;;;;6.35;4.22;;;20.60;65.90;;;;;;5034085;28;20664;-86
2024/01/11 10:40:47;;;;;;;4.75;4.28;;;20.60;66.30;;;;;;5038382;28;20207;-82
2024/01/11 10:43:20;;;;;;;5.75;5.18;;;20.60;66.90;;;;;;5038099;28;20207;-88
2024/01/11 10:45:53;;;;;;;4.97;3.95;;;20.60;66.80;;;;;;5036989;28;20206;-82
2024/01/11 10:48:22;;;;;;;4.95;4.32;;;20.60;68.50;;;;;;5037751;28;20577;-81
2024/01/11 10:50:55;;;;;;;4.18;3.78;;;20.60;67.70;;;;;;5038838;28;20229;-78
2024/01/11 10:53:29;;;;;;;5.65;3.97;;;20.60;67.30;;;;;;5037690;28;21054;-80
2024/01/11 10:55:59;;;;;;;6.55;4.75;;;20.60;67.80;;;;;;5035944;28;21384;-82
2024/01/11 10:58:27;;;;;;;4.10;3.70;;;20.60;68.10;;;;;;5037306;28;20203;-82
2024/01/11 11:00:55;;;;;;;5.38;4.35;;;20.60;69.60;;;;;;5036175;28;20195;-82
2024/01/11 11:03:24;;;;;;;6.20;4.35;;;20.60;69.70;;;;;;5036260;28;20221;-82
2024/01/11 11:05:56;;;;;;;4.50;4.05;;;20.60;68.70;;;;;;5040177;28;20249;-81
2024/01/11 11:08:24;;;;;;;4.35;4.03;;;20.70;69.50;;;;;;5039045;28;20226;-80
2024/01/11 11:10:55;;;;;;;10.98;5.20;;;20.70;69.40;;;;;;5039021;28;20768;-88
2024/01/11 11:13:23;;;;;;;4.20;3.58;;;20.70;69.60;;;;;;5039872;28;20807;-81
2024/01/11 11:15:50;;;;;;;5.93;4.75;;;20.70;69.00;;;;;;5040978;28;20200;-89
2024/01/11 11:18:18;;;;;;;4.75;4.30;;;20.70;69.50;;;;;;5042868;28;20199;-86
2024/01/11 11:20:45;;;;;;;7.87;4.67;;;20.70;69.50;;;;;;5043438;28;20263;-82
2024/01/11 11:23:14;;;;;;;8.38;4.13;;;20.70;70.70;;;;;;5042683;28;20475;-88
2024/01/11 11:25:42;;;;;;;10.35;5.00;;;20.70;69.90;;;;;;5042149;28;20208;-87
2024/01/11 11:28:11;;;;;;;11.07;4.28;;;20.70;71.70;;;;;;5045281;28;20224;-81
2024/01/11 11:30:41;;;;;;;5.28;4.78;;;20.70;72.30;;;;;;5044355;28;20195;-84
2024/01/11 11:33:12;;;;;;;4.25;3.85;;;20.70;72.70;;;;;;5043469;28;20623;-83
2024/01/11 11:35:39;;;;;;;6.43;3.97;;;20.70;71.70;;;;;;5040788;28;20199;-83
2024/01/11 11:38:06;;;;;;;7.72;3.88;;;20.80;71.50;;;;;;5038836;28;20194;-82
2024/01/11 11:40:36;;;;;;;4.13;3.80;;;20.80;73.40;;;;;;5041134;28;20195;-82
2024/01/11 11:43:05;;;;;;;4.95;4.45;;;20.70;73.90;;;;;;5042783;28;20248;-82
2024/01/11 11:45:32;;;;;;;5.15;4.30;;;20.70;72.30;;;;;;5040588;28;20199;-83
2024/01/11 11:48:00;;;;;;;5.07;4.57;;;20.80;73.30;;;;;;5043651;28;20272;-83
2024/01/11 11:50:27;;;;;;;6.28;4.18;;;20.80;72.80;;;;;;5042256;28;20205;-83
2024/01/11 11:52:57;;;;;;;8.32;4.05;;;20.80;72.90;;;;;;5040717;28;20202;-85
2024/01/11 11:55:25;;;;;;;5.90;4.40;;;20.80;75.10;;;;;;5042164;28;20203;-79
2024/01/11 11:57:55;;;;;;;4.90;4.00;;;20.80;76.70;;;;;;5040118;28;20211;-82
2024/01/11 12:00:23;;;;;;;5.30;4.28;;;20.80;75.60;;;;;;5035491;28;20198;-80
2024/01/11 12:02:56;;;;;;;11.10;4.80;;;20.80;75.70;;;;;;5039104;28;20222;-83
2024/01/11 12:05:24;;;;;;;8.15;4.47;;;20.80;74.40;;;;;;5041991;28;20202;-84
2024/01/11 12:07:52;;;;;;;6.07;4.68;;;20.80;73.60;;;;;;5040619;28;20889;-84
2024/01/11 12:10:18;;;;;;;9.13;7.07;;;20.80;74.20;;;;;;5038322;28;20255;-83
2024/01/11 12:12:45;;;;;;;5.82;4.15;;;20.80;73.10;;;;;;5039712;28;20199;-85
2024/01/11 12:15:12;;;;;;;6.38;3.88;;;20.80;73.30;;;;;;5039956;28;20214;-84
2024/01/11 12:17:42;;;;;;;5.38;3.70;;;20.70;72.80;;;;;;5040231;28;20198;-83
2024/01/11 12:20:09;;;;;;;6.55;5.20;;;20.70;72.70;;;;;;5039094;28;20545;-84
2024/01/11 12:22:38;;;;;;;14.20;5.20;;;20.70;72.30;;;;;;5039277;28;20211;-83
2024/01/11 12:25:06;;;;;;;7.40;3.78;;;20.70;72.00;;;;;;5040673;28;20195;-84
2024/01/11 12:27:33;;;;;;;5.18;3.85;;;20.70;71.90;;;;;;5040249;28;20707;-84
2024/01/11 12:30:02;;;;;;;4.53;3.80;;;20.70;72.20;;;;;;5036878;28;20209;-87
2024/01/11 12:32:30;;;;;;;11.65;5.13;;;20.70;71.60;;;;;;5043703;28;20205;-88
2024/01/11 12:34:58;;;;;;;5.60;5.00;;;20.70;72.00;;;;;;5044921;28;20259;-88
2024/01/11 12:37:24;;;;;;;4.00;3.30;;;20.70;71.80;;;;;;5042130;28;20203;-88
2024/01/11 12:39:58;;;;;;;4.65;3.88;;;20.70;72.00;;;;;;5042087;28;21267;-87
2024/01/11 12:42:25;;;;;;;4.70;4.20;;;20.70;72.00;;;;;;5046023;28;20206;-87
2024/01/11 12:44:51;;;;;;;4.50;3.87;;;20.70;72.00;;;;;;5042649;28;20857;-86
2024/01/11 12:47:18;;;;;;;6.53;4.07;;;20.90;72.00;;;;;;5039269;28;20481;-88
2024/01/11 12:49:46;;;;;;;7.40;4.63;;;20.70;71.70;;;;;;5044117;28;20203;-88
2024/01/11 12:52:17;;;;;;;6.30;4.03;;;20.70;71.60;;;;;;5037561;28;21008;-89
2024/01/11 12:54:45;;;;;;;6.27;3.87;;;20.80;71.70;;;;;;5042931;28;20191;-86
2024/01/11 12:57:18;;;;;;;4.30;3.90;;;20.80;71.60;;;;;;5040461;28;20457;-88
2024/01/11 12:59:45;;;;;;;4.82;4.40;;;20.80;71.40;;;;;;5042556;28;20198;-89
2024/01/11 13:02:13;;;;;;;4.33;3.93;;;20.80;71.50;;;;;;5044612;28;20210;-87
2024/01/11 13:04:40;;;;;;;4.47;3.58;;;20.90;71.60;;;;;;5043250;28;20566;-88
2024/01/11 13:07:07;;;;;;;7.95;6.47;;;20.90;71.60;;;;;;5043819;28;20237;-87